CheckWX is a tool to help pilots better visualize weather data.  It is not intended as a substitute for an official pre-flight weather briefing.

13:22:45 UTC

KPIA TAF
General Downing - Peoria International Airport
Peoria, Illinois, USA
KPIA 011721Z 0118/0218 15006KT P6SM VCTS SCT060CB BKN200 FM020200 07005KT P6SM SCT050

Jul-1@
18:00 UTC

Jul-1 @ 18:00 UTC

Jul-2@
02:00 UTC

Jul-2 @ 02:00 UTC

TAF KPIA 011721Z 0118/0218 15006KT P6SM VCTS SCT060CB BKN200

Expired

Wind
  • 150° at 6 KTS
Conditions
Area Thunderstorm
Cloud Levels
  • Scattered at 6,000' AGL
  • Broken at 20,000' AGL

Jul-2@
02:00 UTC

Jul-2 @ 02:00 UTC

Jul-2@
18:00 UTC

Jul-2 @ 18:00 UTC

FM020200 07005KT P6SM SCT050

From

From Standard forecast or significant change

Wind
  • 070° at 5 KTS
Cloud Levels
  • Scattered at 5,000' AGL